Terminal Aerodrome Forecast
Issued by NWS

Home | Current Version | Previous Version | Text Only | Print | Product List | Glossary On
Versions: 1 2 3 4 5 6 7 8 9 10 11 12 13 14 15 16 17 18 19 20 21
443
FTUS41 KALY 292328
TAFPSF
TAF
KPSF 292328Z 3000/3024 15004KT P6SM SCT100 SCT250
     FM300700 19004KT P6SM VCSH BKN120
     FM300900 21003KT 5SM -SHRA BR BKN020 OVC035
     FM301500 24005KT P6SM BKN080
     FM301900 24007KT P6SM VCSH SCT050 SCT250=

USA.gov is the U.S. government's official web portal to all federal, state and local government web resources and services.